Time;durP1;ratioP1;P1;durP2;ratioP2;P2;SDS_P1;SDS_P2;PMS_P1;PMS_P2;Temp;Humidity;BMP_temperature;BMP_pressure;BME280_temperature;BME280_humidity;BME280_pressure;Samples;Min_cycle;Max_cycle;Signal;HPM_P1;HPM_P2
2022/09/10 00:01:07;;;;;;;6.80;3.90;;;;;;;20.70;81.56;100318.84;5033762;28;20539;-76
2022/09/10 00:03:32;;;;;;;5.95;3.45;;;;;;;20.72;81.59;100335.66;5036245;28;20444;-76
2022/09/10 00:05:58;;;;;;;5.43;3.72;;;;;;;20.77;83.65;100360.31;5033991;28;20708;-77
2022/09/10 00:08:23;;;;;;;7.95;3.50;;;;;;;20.65;82.04;100360.84;5034412;28;20433;-76
2022/09/10 00:10:50;;;;;;;11.48;3.63;;;;;;;20.69;80.51;100366.91;5031330;28;20049;-74
2022/09/10 00:13:19;;;;;;;5.82;3.50;;;;;;;20.48;81.37;100334.84;5032993;28;20143;-78
2022/09/10 00:15:50;;;;;;;11.50;3.38;;;;;;;20.73;80.84;100364.06;5034115;28;20112;-76
2022/09/10 00:18:17;;;;;;;9.20;3.45;;;;;;;20.44;80.64;100318.16;5033125;28;20144;-78
2022/09/10 00:20:54;;;;;;;4.50;2.95;;;;;;;19.44;80.87;100158.91;5028999;28;20053;-75
2022/09/10 00:23:22;;;;;;;6.38;3.50;;;;;;;20.15;81.09;100274.06;5016922;28;20125;-80
2022/09/10 00:25:50;;;;;;;9.10;4.25;;;;;;;19.95;81.79;100248.25;4996604;28;20489;-77
2022/09/10 00:28:17;;;;;;;9.68;4.43;;;;;;;20.32;82.24;100328.44;5014598;28;20450;-78
2022/09/10 00:30:45;;;;;;;4.95;3.17;;;;;;;19.81;82.20;100235.50;5015106;28;20042;-78
2022/09/10 00:33:12;;;;;;;7.40;3.38;;;;;;;19.41;83.41;100180.34;5015891;28;20032;-76
2022/09/10 00:35:39;;;;;;;7.25;4.38;;;;;;;19.70;82.26;100226.22;4999654;28;20045;-79
2022/09/10 00:38:05;;;;;;;7.57;4.13;;;;;;;19.44;82.76;100203.28;5015397;28;20141;-74
2022/09/10 00:40:31;;;;;;;10.93;3.63;;;;;;;19.59;83.01;100221.28;5014580;28;20650;-75
2022/09/10 00:42:57;;;;;;;4.30;3.03;;;;;;;20.33;82.87;100362.16;5011253;28;20049;-76
2022/09/10 00:45:28;;;;;;;5.85;3.15;;;;;;;19.00;83.22;100177.50;5016200;28;20037;-75
2022/09/10 00:48:01;;;;;;;4.78;3.33;;;;;;;20.00;82.94;100350.16;5015909;28;20052;-75
2022/09/10 00:50:34;;;;;;;7.18;3.05;;;;;;;19.68;84.01;100295.50;5019546;28;20085;-76
2022/09/10 00:53:05;;;;;;;5.43;3.33;;;;;;;19.87;85.11;100358.69;5017951;28;20124;-77
2022/09/10 00:55:33;;;;;;;5.22;3.53;;;;;;;19.03;85.33;100221.72;5013685;28;20884;-74
2022/09/10 00:58:02;;;;;;;13.30;4.43;;;;;;;18.97;85.91;100213.06;5012913;28;20057;-75
2022/09/10 01:00:30;;;;;;;6.90;3.33;;;;;;;19.84;85.49;100365.00;4997379;28;20039;-76
2022/09/10 01:02:55;;;;;;;8.02;3.47;;;;;;;18.90;86.35;100219.53;5017923;28;20052;-78
2022/09/10 01:05:23;;;;;;;17.85;3.17;;;;;;;19.44;86.38;100331.91;5010426;28;20081;-79
2022/09/10 01:07:48;;;;;;;6.90;3.97;;;;;;;19.36;86.38;100313.56;5013405;28;20057;-76
2022/09/10 01:10:20;;;;;;;11.10;4.80;;;;;;;19.61;86.81;100348.06;5014573;28;20053;-77
2022/09/10 01:13:10;;;;;;;11.35;5.00;;;;;;;19.62;86.81;100354.28;5012058;28;20488;-77
2022/09/10 01:15:41;;;;;;;7.65;4.38;;;;;;;19.52;87.49;100352.88;5016219;28;20095;-75
2022/09/10 01:18:30;;;;;;;10.98;4.32;;;;;;;19.32;88.09;100321.72;5014165;28;20095;-76
2022/09/10 01:21:14;;;;;;;10.50;4.15;;;;;;;19.28;89.21;100341.38;4998494;28;20057;-77
2022/09/10 01:23:58;;;;;;;16.90;4.35;;;;;;;19.31;88.89;100326.16;5010960;28;20045;-74
2022/09/10 01:26:29;;;;;;;6.18;4.03;;;;;;;19.21;90.59;100347.84;5013779;28;20041;-76
2022/09/10 01:29:03;;;;;;;7.43;4.18;;;;;;;19.05;90.88;100310.31;5012959;28;20488;-75
2022/09/10 01:31:45;;;;;;;11.10;4.32;;;;;;;19.15;90.97;100333.84;5011838;28;20049;-76
2022/09/10 01:34:21;;;;;;;6.97;4.55;;;;;;;18.42;91.60;100233.63;5013180;28;20144;-76
2022/09/10 01:36:50;;;;;;;5.50;4.10;;;;;;;18.49;92.42;100261.72;5012933;28;20048;-74
2022/09/10 01:39:18;;;;;;;7.97;4.43;;;;;;;18.84;92.84;100327.91;5012789;28;20037;-76
2022/09/10 01:41:44;;;;;;;6.22;3.85;;;;;;;18.27;93.52;100247.47;5014376;28;20049;-76
2022/09/10 01:44:40;;;;;;;8.10;4.60;;;;;;;19.12;93.27;100363.22;5012147;28;20050;-78
2022/09/10 01:47:13;;;;;;;6.55;4.15;;;;;;;18.23;93.69;100225.44;4994057;28;23054;-76
2022/09/10 01:50:10;;;;;;;12.48;5.60;;;;;;;18.05;94.29;100194.22;5013949;28;20065;-74
2022/09/10 01:53:16;;;;;;;10.52;4.78;;;;;;;18.81;95.26;100326.22;4981928;28;20140;-75
2022/09/10 01:55:58;;;;;;;9.68;4.43;;;;;;;18.95;96.03;100362.97;4955116;28;20051;-74
2022/09/10 01:58:41;;;;;;;7.47;4.05;;;;;;;18.81;96.44;100336.00;5012882;28;20069;-76
2022/09/10 02:01:19;;;;;;;14.38;3.92;;;;;;;18.88;96.95;100353.47;5012917;28;20065;-75
2022/09/10 02:03:49;;;;;;;6.60;4.55;;;;;;;18.08;97.22;100207.41;5015790;28;20108;-74
2022/09/10 02:06:19;;;;;;;6.15;4.63;;;;;;;18.05;98.21;100215.44;4995139;28;20053;-78
2022/09/10 02:08:48;;;;;;;10.07;5.45;;;;;;;18.83;98.66;100347.44;5011541;28;20101;-78
2022/09/10 02:11:14;;;;;;;5.70;4.20;;;;;;;18.01;98.63;100203.22;5010376;28;20511;-76
2022/09/10 02:13:43;;;;;;;6.32;5.40;;;;;;;18.79;99.06;100332.50;5013752;28;20136;-75
2022/09/10 02:16:14;;;;;;;10.15;5.25;;;;;;;18.34;100.00;100291.50;5013139;28;20056;-77
2022/09/10 02:18:41;;;;;;;13.85;5.80;;;;;;;17.81;100.00;100199.44;5017919;28;20096;-76
2022/09/10 02:21:08;;;;;;;7.88;4.40;;;;;;;18.56;100.00;100299.59;5019514;28;20053;-75
2022/09/10 02:23:47;;;;;;;12.45;6.38;;;;;;;17.86;100.00;100199.28;5017842;28;20049;-79
2022/09/10 02:26:14;;;;;;;8.40;5.18;;;;;;;18.65;100.00;100339.13;5021512;28;20054;-78
2022/09/10 02:28:42;;;;;;;8.77;5.28;;;;;;;18.61;100.00;100313.56;5020547;28;20060;-77
2022/09/10 02:31:08;;;;;;;6.57;3.95;;;;;;;17.86;100.00;100178.03;5018536;28;20068;-76
2022/09/10 02:33:34;;;;;;;9.15;6.63;;;;;;;18.51;100.00;100290.91;5021746;28;20547;-75
2022/09/10 02:36:01;;;;;;;12.15;5.10;;;;;;;17.93;100.00;100201.69;4998060;28;20064;-78
2022/09/10 02:38:28;;;;;;;8.52;5.95;;;;;;;17.93;100.00;100199.03;5021734;28;20076;-77
2022/09/10 02:40:56;;;;;;;11.50;4.53;;;;;;;17.79;100.00;100185.31;5019616;28;20501;-77
2022/09/10 02:43:21;;;;;;;12.20;5.38;;;;;;;18.34;100.00;100288.84;5023129;28;20485;-76
2022/09/10 02:45:47;;;;;;;17.50;4.97;;;;;;;18.50;100.00;100318.41;5018570;28;20063;-76
2022/09/10 02:48:12;;;;;;;10.13;5.15;;;;;;;18.54;100.00;100341.28;5021080;28;20432;-75
2022/09/10 02:50:38;;;;;;;8.40;4.97;;;;;;;18.26;100.00;100301.50;5020119;28;20045;-78
2022/09/10 02:53:04;;;;;;;5.97;4.85;;;;;;;17.62;100.00;100185.88;5021349;28;20184;-76
2022/09/10 02:55:30;;;;;;;9.18;5.45;;;;;;;18.46;100.00;100327.41;5020864;28;20045;-77
2022/09/10 02:57:57;;;;;;;9.32;5.18;;;;;;;18.26;100.00;100299.75;5020808;28;20049;-79
2022/09/10 03:00:23;;;;;;;17.75;4.60;;;;;;;18.50;100.00;100315.75;5003059;28;20030;-77
2022/09/10 03:02:49;;;;;;;6.25;4.68;;;;;;;18.35;100.00;100309.16;5021130;28;20085;-76
2022/09/10 03:05:16;;;;;;;6.07;4.90;;;;;;;18.44;100.00;100340.75;5014148;28;20087;-77
2022/09/10 03:07:42;;;;;;;10.95;5.60;;;;;;;17.66;100.00;100192.81;5017888;28;20045;-77
2022/09/10 03:10:08;;;;;;;7.00;5.05;;;;;;;18.31;100.00;100295.13;5017787;28;20068;-79
2022/09/10 03:12:35;;;;;;;11.25;5.50;;;;;;;18.59;100.00;100339.38;5023049;28;20215;-81
2022/09/10 03:15:00;;;;;;;9.63;5.03;;;;;;;17.81;100.00;100203.88;5021055;28;20313;-77
2022/09/10 03:17:26;;;;;;;7.93;5.07;;;;;;;18.68;100.00;100347.03;5019647;28;20497;-78
2022/09/10 03:19:51;;;;;;;9.23;6.32;;;;;;;18.62;100.00;100336.59;5021998;28;20072;-77
2022/09/10 03:22:17;;;;;;;6.20;5.57;;;;;;;18.50;100.00;100300.69;5015675;28;20393;-77
2022/09/10 03:24:42;;;;;;;9.70;5.68;;;;;;;17.23;100.00;100093.44;5015612;28;20415;-75
2022/09/10 03:27:08;;;;;;;11.10;5.13;;;;;;;18.73;100.00;100325.56;5016204;28;20040;-77
2022/09/10 03:29:35;;;;;;;9.20;6.40;;;;;;;18.55;100.00;100313.81;5015567;28;20072;-80
2022/09/10 03:32:01;;;;;;;10.85;5.63;;;;;;;18.60;100.00;100341.09;5011730;28;20057;-76
2022/09/10 03:34:26;;;;;;;5.88;4.53;;;;;;;18.74;100.00;100345.94;5015159;28;20157;-77
2022/09/10 03:36:52;;;;;;;9.07;6.35;;;;;;;18.67;100.00;100341.75;5014851;28;20037;-76
2022/09/10 03:39:17;;;;;;;9.95;5.45;;;;;;;18.05;100.00;100226.97;5015627;28;20029;-81
2022/09/10 03:41:44;;;;;;;7.35;4.40;;;;;;;18.71;100.00;100344.25;5014320;28;20049;-75
2022/09/10 03:44:10;;;;;;;8.73;4.68;;;;;;;17.88;100.00;100203.63;5011501;28;20045;-75
2022/09/10 03:46:37;;;;;;;8.85;5.20;;;;;;;17.85;100.00;100201.06;4994827;28;20042;-75
2022/09/10 03:49:06;;;;;;;10.30;5.88;;;;;;;18.55;100.00;100324.44;5010885;28;20103;-75
2022/09/10 03:51:32;;;;;;;7.97;4.95;;;;;;;18.75;100.00;100351.22;5014858;28;20040;-77
2022/09/10 03:53:59;;;;;;;6.50;5.30;;;;;;;18.71;100.00;100351.38;5013353;28;20053;-81
2022/09/10 03:56:25;;;;;;;11.60;5.35;;;;;;;17.93;100.00;100225.59;5014271;28;20127;-75
2022/09/10 03:58:51;;;;;;;9.45;6.10;;;;;;;18.50;100.00;100297.16;5014770;28;20034;-77
2022/09/10 04:01:17;;;;;;;10.48;5.90;;;;;;;18.74;100.00;100341.47;5014425;28;20706;-76
2022/09/10 04:03:43;;;;;;;7.15;5.13;;;;;;;18.09;100.00;100244.50;4997182;28;20527;-76
2022/09/10 04:06:10;;;;;;;10.55;5.25;;;;;;;18.53;100.00;100313.84;5013654;28;20037;-79
2022/09/10 04:08:36;;;;;;;6.75;5.25;;;;;;;17.97;100.00;100214.84;4988195;28;20052;-77
2022/09/10 04:11:03;;;;;;;10.25;6.22;;;;;;;18.54;100.00;100320.91;5012691;28;20675;-75
2022/09/10 04:13:30;;;;;;;15.85;5.53;;;;;;;18.10;100.00;100237.44;5013769;28;20982;-76
2022/09/10 04:15:56;;;;;;;9.82;5.22;;;;;;;18.64;100.00;100321.47;5026406;28;20118;-79
2022/09/10 04:18:22;;;;;;;6.80;4.90;;;;;;;17.95;100.00;100209.59;5014574;28;20515;-76
2022/09/10 04:20:47;;;;;;;8.68;5.65;;;;;;;18.78;100.00;100336.97;5013193;28;20045;-78
2022/09/10 04:23:15;;;;;;;6.53;4.90;;;;;;;17.86;100.00;100162.13;5013414;28;20045;-75
2022/09/10 04:25:41;;;;;;;10.88;5.45;;;;;;;17.97;100.00;100199.78;5013990;28;20049;-75
2022/09/10 04:28:06;;;;;;;16.63;5.97;;;;;;;17.94;100.00;100197.25;5012581;28;20548;-77
2022/09/10 04:30:32;;;;;;;6.03;5.32;;;;;;;18.94;100.00;100337.28;5016041;28;20084;-76
2022/09/10 04:32:57;;;;;;;7.38;5.13;;;;;;;18.72;100.00;100340.66;5010105;28;20230;-80
2022/09/10 04:35:23;;;;;;;9.07;5.75;;;;;;;18.60;100.00;100295.06;5015299;28;20046;-80
2022/09/10 04:37:48;;;;;;;8.75;5.15;;;;;;;18.85;100.00;100340.28;5014515;28;20492;-81
2022/09/10 04:40:14;;;;;;;9.80;5.72;;;;;;;18.69;100.00;100281.44;5011278;28;20049;-81
2022/09/10 04:42:39;;;;;;;8.65;5.40;;;;;;;18.96;100.00;100320.38;5011603;28;20048;-78
2022/09/10 04:45:06;;;;;;;9.05;7.22;;;;;;;18.06;100.00;100172.06;5025144;28;20061;-78
2022/09/10 04:47:32;;;;;;;11.45;6.82;;;;;;;18.54;100.00;100249.16;5011011;28;20061;-78
2022/09/10 04:49:58;;;;;;;8.27;5.88;;;;;;;18.11;100.00;100183.38;4995115;28;20065;-78
2022/09/10 04:52:23;;;;;;;12.18;5.85;;;;;;;18.41;100.00;100253.16;5022498;28;20379;-77
2022/09/10 04:54:49;;;;;;;9.45;6.30;;;;;;;18.89;100.00;100316.16;5013028;28;20040;-77
2022/09/10 04:57:15;;;;;;;8.77;6.80;;;;;;;18.50;100.00;100225.41;5011575;28;20116;-74
2022/09/10 04:59:40;;;;;;;11.25;6.45;;;;;;;19.21;100.00;100326.56;5012875;28;20076;-74
2022/09/10 05:02:12;;;;;;;12.82;5.80;;;;;;;18.51;100.00;100214.72;5012488;28;20072;-77
2022/09/10 05:04:38;;;;;;;13.65;7.15;;;;;;;19.07;100.00;100325.28;5013124;28;20046;-78
2022/09/10 05:07:04;;;;;;;7.82;5.90;;;;;;;19.10;100.00;100289.72;5012137;28;20072;-77
2022/09/10 05:09:32;;;;;;;8.43;6.43;;;;;;;19.51;100.00;100336.06;5011477;28;20037;-76
2022/09/10 05:11:59;;;;;;;16.00;6.65;;;;;;;19.48;100.00;100287.38;5010546;28;20591;-75
2022/09/10 05:14:25;;;;;;;8.02;6.00;;;;;;;19.13;100.00;100201.84;4995679;28;20060;-74
2022/09/10 05:16:51;;;;;;;9.35;7.07;;;;;;;19.31;100.00;100233.03;5010094;28;20418;-77
2022/09/10 05:19:16;;;;;;;10.18;6.82;;;;;;;20.41;100.00;100320.06;5012814;28;20053;-76
2022/09/10 05:21:47;;;;;;;13.50;7.55;;;;;;;20.44;95.30;100197.34;5017724;28;20057;-74
2022/09/10 05:24:13;;;;;;;10.48;7.40;;;;;;;21.09;93.12;100286.00;5030767;28;20045;-76
2022/09/10 05:26:38;;;;;;;12.25;7.97;;;;;;;21.10;94.65;100313.56;5012370;28;20061;-77
2022/09/10 05:29:04;;;;;;;10.27;6.65;;;;;;;20.47;94.45;100186.53;5031597;28;20072;-76
2022/09/10 05:31:29;;;;;;;8.05;5.97;;;;;;;22.38;89.30;100322.59;5032077;28;20401;-74
2022/09/10 05:33:55;;;;;;;9.38;6.72;;;;;;;21.79;87.36;100201.69;5030093;28;20045;-75
2022/09/10 05:36:26;;;;;;;7.57;5.22;;;;;;;22.93;84.57;100295.69;5031063;28;20037;-78
2022/09/10 05:38:53;;;;;;;10.82;6.47;;;;;;;23.62;81.99;100307.13;5031950;28;20056;-75
2022/09/10 05:41:20;;;;;;;14.38;5.40;;;;;;;23.76;81.35;100309.97;5032928;28;20063;-78
2022/09/10 05:43:49;;;;;;;11.05;5.40;;;;;;;24.04;79.98;100296.78;5031569;28;20079;-75
2022/09/10 05:46:14;;;;;;;16.90;5.65;;;;;;;24.25;78.46;100313.44;5031462;28;20052;-78
2022/09/10 05:48:40;;;;;;;14.18;5.15;;;;;;;23.58;77.09;100190.41;5032177;28;20028;-80
2022/09/10 05:51:06;;;;;;;7.85;5.20;;;;;;;24.49;76.07;100292.38;5030438;28;20396;-75
2022/09/10 05:53:32;;;;;;;8.45;5.30;;;;;;;24.37;75.60;100291.25;5031247;28;20142;-75
2022/09/10 05:55:58;;;;;;;11.60;5.85;;;;;;;24.54;74.61;100276.88;5012758;28;20115;-75
2022/09/10 05:58:23;;;;;;;13.13;5.32;;;;;;;24.93;73.23;100305.75;5029716;28;20152;-75
2022/09/10 06:00:53;;;;;;;7.10;4.40;;;;;;;24.80;73.87;100286.03;5031917;28;20043;-76
2022/09/10 06:03:19;;;;;;;12.48;5.68;;;;;;;23.59;75.75;100168.88;5033841;28;20072;-75
2022/09/10 06:05:52;;;;;;;12.30;5.03;;;;;;;24.89;73.26;100309.63;5032290;28;20060;-76
2022/09/10 06:08:21;;;;;;;16.08;5.88;;;;;;;23.91;73.85;100166.16;5013428;28;20147;-73
2022/09/10 06:11:00;;;;;;;12.18;4.75;;;;;;;23.19;75.53;100215.81;5011630;28;20127;-75
2022/09/10 06:13:26;;;;;;;9.40;4.57;;;;;;;23.62;78.24;100306.28;5029609;28;20126;-77
2022/09/10 06:15:52;;;;;;;8.23;3.80;;;;;;;23.33;75.32;100189.13;5030804;28;20108;-74
2022/09/10 06:18:18;;;;;;;11.38;5.13;;;;;;;23.70;74.91;100239.75;5030856;28;20492;-77
2022/09/10 06:20:44;;;;;;;12.90;4.63;;;;;;;23.84;75.86;100296.13;5028400;28;20052;-77
2022/09/10 06:23:10;;;;;;;8.48;4.35;;;;;;;23.01;76.46;100198.09;5017117;28;21216;-77
2022/09/10 06:25:36;;;;;;;11.25;4.45;;;;;;;23.57;76.90;100303.84;5013468;28;20862;-76
2022/09/10 06:28:01;;;;;;;7.03;3.90;;;;;;;22.97;76.96;100200.91;5014125;28;20038;-79
2022/09/10 06:30:27;;;;;;;6.38;4.22;;;;;;;23.36;76.71;100268.41;5014710;28;20495;-77
2022/09/10 06:32:52;;;;;;;7.28;4.07;;;;;;;22.63;77.19;100168.91;4993971;28;20041;-76
2022/09/10 06:35:18;;;;;;;11.57;3.85;;;;;;;23.07;76.64;100241.44;5012360;28;20132;-77
2022/09/10 06:37:44;;;;;;;8.25;4.25;;;;;;;22.77;77.23;100196.63;5015649;28;20077;-76
2022/09/10 06:40:09;;;;;;;10.02;3.60;;;;;;;22.80;77.99;100205.44;5014959;28;20746;-76
2022/09/10 06:42:35;;;;;;;9.32;5.57;;;;;;;23.42;76.70;100310.06;5014759;28;20104;-78
2022/09/10 06:45:00;;;;;;;7.28;3.55;;;;;;;22.66;78.69;100294.44;5012800;28;20378;-77
2022/09/10 06:47:26;;;;;;;7.13;3.50;;;;;;;22.77;78.97;100311.66;5013840;28;20409;-80
2022/09/10 06:49:51;;;;;;;11.48;4.88;;;;;;;21.82;79.08;100204.25;5013602;28;20103;-80
2022/09/10 06:52:17;;;;;;;12.30;3.70;;;;;;;22.01;79.61;100222.88;4995801;28;20052;-78
2022/09/10 06:54:42;;;;;;;14.05;3.78;;;;;;;21.68;79.84;100199.59;5014149;28;20046;-76
2022/09/10 06:57:08;;;;;;;6.72;3.55;;;;;;;22.47;80.28;100322.13;5014463;28;20064;-76
2022/09/10 06:59:33;;;;;;;6.22;3.58;;;;;;;22.63;79.47;100306.19;5013811;28;20085;-76
2022/09/10 07:02:01;;;;;;;7.72;4.00;;;;;;;21.93;79.48;100211.69;5012871;28;20797;-75
2022/09/10 07:04:26;;;;;;;15.38;3.85;;;;;;;22.14;78.38;100226.63;4998856;28;20060;-76
2022/09/10 07:06:52;;;;;;;7.75;3.55;;;;;;;22.76;79.78;100346.53;5017663;28;20041;-75
2022/09/10 07:09:18;;;;;;;9.25;3.60;;;;;;;21.95;78.76;100216.97;5011860;28;20120;-75
2022/09/10 07:11:49;;;;;;;8.25;3.50;;;;;;;22.07;77.76;100205.66;5011197;28;20058;-79
2022/09/10 07:14:16;;;;;;;11.82;4.63;;;;;;;22.92;75.30;100318.03;5015576;28;20068;-76
2022/09/10 07:16:43;;;;;;;15.77;4.80;;;;;;;22.53;78.37;100311.13;5013062;28;20050;-75
2022/09/10 07:19:09;;;;;;;11.77;4.15;;;;;;;22.58;78.35;100305.56;5012732;28;20037;-75
2022/09/10 07:21:36;;;;;;;7.47;4.88;;;;;;;22.31;79.12;100230.28;5008382;28;20658;-75
2022/09/10 07:24:04;;;;;;;7.00;4.05;;;;;;;22.45;79.61;100308.00;5030612;28;20053;-76
2022/09/10 07:26:30;;;;;;;8.73;4.57;;;;;;;21.99;77.94;100197.19;5034007;28;20037;-76
2022/09/10 07:28:57;;;;;;;6.93;4.13;;;;;;;22.17;78.06;100227.44;5016030;28;20060;-76
2022/09/10 07:31:27;;;;;;;6.80;4.25;;;;;;;22.82;76.72;100353.38;5015460;28;20056;-78
2022/09/10 07:33:54;;;;;;;17.00;5.00;;;;;;;22.74;78.06;100349.28;5034348;28;20149;-75
2022/09/10 07:36:19;;;;;;;12.18;4.15;;;;;;;22.24;77.92;100244.91;5035161;28;20032;-76
2022/09/10 07:38:45;;;;;;;9.98;3.83;;;;;;;22.98;77.56;100324.88;5034262;28;20742;-75
2022/09/10 07:41:14;;;;;;;10.18;4.13;;;;;;;22.26;78.62;100221.63;5034639;28;20048;-77
2022/09/10 07:43:41;;;;;;;13.20;3.65;;;;;;;22.80;78.64;100305.28;5013875;28;20144;-76
2022/09/10 07:46:07;;;;;;;11.23;4.60;;;;;;;22.80;79.21;100336.53;5031765;28;20112;-76
2022/09/10 07:48:33;;;;;;;10.98;4.65;;;;;;;22.70;78.71;100312.06;5032923;28;20025;-77
2022/09/10 07:51:06;;;;;;;13.45;4.78;;;;;;;22.79;79.07;100298.22;5034581;28;20501;-76
2022/09/10 07:53:33;;;;;;;11.73;5.50;;;;;;;22.89;79.14;100301.28;5032745;28;20068;-75
2022/09/10 07:56:04;;;;;;;9.30;4.95;;;;;;;23.10;78.39;100332.28;5023643;28;20059;-79
2022/09/10 07:58:30;;;;;;;6.35;4.10;;;;;;;22.38;78.31;100212.13;5012296;28;20053;-79
2022/09/10 08:00:58;;;;;;;25.42;5.90;;;;;;;23.22;77.52;100329.88;5015978;28;20856;-76
2022/09/10 08:03:25;;;;;;;7.82;5.07;;;;;;;22.44;76.47;100217.16;5016033;28;20033;-75
2022/09/10 08:05:52;;;;;;;13.00;5.50;;;;;;;23.02;76.14;100314.91;5031060;28;20079;-79
2022/09/10 08:08:18;;;;;;;8.57;4.95;;;;;;;23.03;77.07;100348.75;5032393;28;20049;-75
2022/09/10 08:10:45;;;;;;;16.23;5.30;;;;;;;22.89;75.87;100291.44;5029266;28;20736;-76
2022/09/10 08:13:11;;;;;;;8.57;5.28;;;;;;;22.63;75.83;100201.00;5010744;28;20040;-75
2022/09/10 08:15:42;;;;;;;11.10;5.05;;;;;;;23.47;76.35;100341.00;5032475;28;20037;-75
2022/09/10 08:18:07;;;;;;;7.65;5.85;;;;;;;22.62;75.38;100207.31;5029281;28;20048;-75
2022/09/10 08:20:33;;;;;;;9.85;5.85;;;;;;;23.18;76.40;100339.91;5021039;28;20108;-74
2022/09/10 08:22:59;;;;;;;21.88;6.15;;;;;;;23.31;71.34;100327.56;5010515;28;20053;-75
2022/09/10 08:25:25;;;;;;;9.20;5.53;;;;;;;22.86;72.89;100199.75;4987949;28;20398;-74
2022/09/10 08:27:50;;;;;;;19.75;6.40;;;;;;;22.67;75.33;100162.44;5010366;28;20129;-75
2022/09/10 08:30:15;;;;;;;8.07;5.63;;;;;;;22.85;75.57;100179.28;5005020;28;22493;-75
2022/09/10 08:32:41;;;;;;;14.63;7.78;;;;;;;23.83;73.95;100306.91;4997412;28;20073;-75
2022/09/10 08:35:07;;;;;;;9.63;6.20;;;;;;;23.26;70.58;100227.03;4988931;28;20481;-74
2022/09/10 08:37:33;;;;;;;11.50;6.60;;;;;;;23.84;71.84;100305.97;5007242;28;20071;-74
2022/09/10 08:39:58;;;;;;;10.98;5.43;;;;;;;23.11;72.12;100170.72;5005315;28;20045;-75
2022/09/10 08:42:31;;;;;;;7.95;5.72;;;;;;;24.04;70.85;100300.31;5004211;28;20757;-74
2022/09/10 08:45:13;;;;;;;11.07;5.90;;;;;;;23.36;72.68;100193.44;5002667;28;20049;-75
2022/09/10 08:47:53;;;;;;;17.85;7.28;;;;;;;23.95;73.91;100295.47;5004914;28;20061;-74
2022/09/10 08:50:26;;;;;;;9.88;5.32;;;;;;;24.00;72.64;100305.00;5003969;28;20172;-71
2022/09/10 08:53:10;;;;;;;;;;;;;;;24.04;72.56;100289.59;5004395;28;20041;-72
2022/09/10 08:55:39;;;;;;;;;;;;;;;24.09;71.81;100284.84;5005173;28;19924;-75
2022/09/10 08:58:17;;;;;;;7.25;4.85;;;;;;;24.23;72.02;100273.28;5000476;28;19933;-74
2022/09/10 09:00:45;;;;;;;9.52;6.15;;;;;;;24.17;72.09;100265.63;5006631;28;20140;-75
2022/09/10 09:03:28;;;;;;;14.55;5.95;;;;;;;24.40;71.05;100291.09;4986179;28;20051;-76
2022/09/10 09:05:58;;;;;;;10.05;5.63;;;;;;;24.11;71.13;100255.25;5005995;28;20089;-75
2022/09/10 09:08:28;;;;;;;9.80;6.40;;;;;;;24.33;71.67;100279.00;5002673;28;20136;-73
2022/09/10 09:11:13;;;;;;;11.80;5.70;;;;;;;24.42;70.34;100284.66;5005874;28;20505;-73
2022/09/10 09:13:57;;;;;;;12.65;5.80;;;;;;;24.47;69.61;100289.78;4997156;28;20053;-73
2022/09/10 09:16:46;;;;;;;12.40;5.60;;;;;;;24.63;69.41;100289.72;5003893;28;20068;-73
2022/09/10 09:19:28;;;;;;;10.05;5.93;;;;;;;24.75;70.27;100283.63;5003982;28;20088;-73
2022/09/10 09:22:05;;;;;;;10.07;5.95;;;;;;;24.83;69.72;100256.31;5003529;28;20054;-76
2022/09/10 09:24:56;;;;;;;11.48;6.38;;;;;;;24.92;69.92;100279.91;4984504;28;20033;-77
2022/09/10 09:27:26;;;;;;;12.20;5.95;;;;;;;24.81;67.32;100229.53;4997361;28;20107;-74
2022/09/10 09:30:24;;;;;;;9.00;6.07;;;;;;;25.12;67.79;100278.63;4995578;28;20045;-75
2022/09/10 09:32:50;;;;;;;9.40;5.70;;;;;;;25.19;67.64;100265.72;4978391;28;20510;-79
2022/09/10 09:35:39;;;;;;;11.82;7.60;;;;;;;25.27;67.06;100250.00;5002307;28;20061;-75
2022/09/10 09:38:16;;;;;;;14.55;6.60;;;;;;;25.37;67.73;100274.44;4989584;28;20046;-75
2022/09/10 09:40:51;;;;;;;8.80;6.60;;;;;;;24.89;66.17;100177.19;4998112;28;20163;-75
2022/09/10 09:43:42;;;;;;;8.13;6.35;;;;;;;25.28;65.77;100263.31;4997724;28;20111;-76
2022/09/10 09:46:17;;;;;;;8.45;6.35;;;;;;;25.32;65.36;100242.50;4995050;28;20045;-78
2022/09/10 09:48:45;;;;;;;8.05;6.72;;;;;;;25.42;64.98;100251.69;4997596;28;20037;-75
2022/09/10 09:51:19;;;;;;;11.38;6.82;;;;;;;25.49;65.06;100244.94;5000127;28;20033;-79
2022/09/10 09:53:46;;;;;;;12.43;6.05;;;;;;;25.42;65.28;100202.47;5000430;28;20057;-73
2022/09/10 09:56:29;;;;;;;15.27;6.47;;;;;;;24.89;65.26;100107.41;5000138;28;20057;-73
2022/09/10 09:58:57;;;;;;;10.80;6.60;;;;;;;24.96;64.05;100109.63;4991985;28;20081;-77
2022/09/10 10:01:25;;;;;;;8.57;7.53;;;;;;;25.47;64.09;100190.47;5001207;28;20053;-75
2022/09/10 10:03:53;;;;;;;10.95;6.68;;;;;;;25.87;63.86;100225.50;5003733;28;20033;-74
2022/09/10 10:06:31;;;;;;;13.85;7.70;;;;;;;25.84;63.24;100224.78;5001430;28;20041;-74
2022/09/10 10:09:05;;;;;;;11.63;6.90;;;;;;;25.11;63.18;100118.50;5003803;28;20276;-75
2022/09/10 10:11:55;;;;;;;9.07;6.55;;;;;;;25.89;62.08;100211.91;5002123;28;20069;-72
2022/09/10 10:14:24;;;;;;;11.63;7.05;;;;;;;25.80;63.86;100202.63;4997620;28;20824;-78
2022/09/10 10:16:52;;;;;;;23.90;7.97;;;;;;;26.11;62.06;100205.97;4997034;28;20873;-73
2022/09/10 10:19:37;;;;;;;9.63;6.97;;;;;;;26.15;60.47;100214.69;4998896;28;20116;-73
2022/09/10 10:22:13;;;;;;;10.25;6.90;;;;;;;26.48;60.16;100196.22;4986687;28;20084;-73
2022/09/10 10:24:39;;;;;;;13.75;6.78;;;;;;;26.42;60.71;100182.34;5005127;28;20080;-75
2022/09/10 10:27:04;;;;;;;10.93;7.90;;;;;;;26.73;59.27;100165.75;5005056;28;20721;-74
2022/09/10 10:29:30;;;;;;;8.98;7.07;;;;;;;27.12;58.23;100174.63;5007250;28;20378;-74
2022/09/10 10:31:56;;;;;;;10.52;8.18;;;;;;;27.25;56.36;100188.06;5007470;28;20061;-75
2022/09/10 10:34:39;;;;;;;12.70;7.68;;;;;;;27.71;55.04;100189.22;5006435;28;20064;-73
2022/09/10 10:37:36;;;;;;;19.60;8.20;;;;;;;28.23;53.91;100182.53;5008558;28;20056;-73
2022/09/10 10:40:29;;;;;;;8.82;7.00;;;;;;;28.33;54.86;100153.88;5009394;28;20065;-73
2022/09/10 10:43:25;;;;;;;16.70;8.10;;;;;;;27.23;54.16;99990.69;5008344;28;20053;-73
2022/09/10 10:46:08;;;;;;;17.63;7.75;;;;;;;28.77;52.77;100154.03;5009823;28;20075;-72
2022/09/10 10:49:07;;;;;;;15.35;7.45;;;;;;;28.57;52.56;100169.16;5007585;28;20099;-73
2022/09/10 10:51:57;;;;;;;7.63;6.85;;;;;;;29.20;51.74;100170.38;5010370;28;20105;-74
2022/09/10 10:54:50;;;;;;;12.38;6.63;;;;;;;29.49;49.28;100167.09;5009016;28;20135;-74
2022/09/10 10:57:43;;;;;;;16.65;7.45;;;;;;;29.34;52.57;100161.13;5010656;28;20042;-73
2022/09/10 11:00:11;;;;;;;;;;;;;;;29.74;50.18;100167.78;5009879;28;20061;-74
2022/09/10 11:02:49;;;;;;;13.40;8.52;;;;;;;29.61;48.93;100155.25;4992483;28;19925;-74
2022/09/10 11:05:30;;;;;;;14.57;7.45;;;;;;;28.95;49.20;100166.06;5007540;28;20053;-74
2022/09/10 11:08:03;;;;;;;26.08;23.63;;;;;;;28.91;51.33;100139.44;5009250;28;20049;-73
2022/09/10 11:11:03;;;;;;;8.60;7.20;;;;;;;28.37;49.29;100050.06;5010600;28;20159;-73
2022/09/10 11:13:53;;;;;;;14.93;7.75;;;;;;;28.97;52.42;100147.91;4952597;28;20053;-74
2022/09/10 11:16:28;;;;;;;10.48;6.80;;;;;;;28.57;49.23;100017.97;5008561;28;20111;-74
2022/09/10 11:19:01;;;;;;;9.75;7.95;;;;;;;29.23;48.79;100090.88;5010759;28;20039;-74
2022/09/10 11:21:45;;;;;;;13.13;6.70;;;;;;;29.65;49.64;100145.03;4988273;28;20037;-74
2022/09/10 11:24:25;;;;;;;12.60;7.03;;;;;;;29.15;48.79;100107.75;5007812;28;20103;-73
2022/09/10 11:27:06;;;;;;;8.48;6.28;;;;;;;28.98;51.46;100132.53;5006928;28;20506;-75
2022/09/10 11:29:43;;;;;;;10.52;7.40;;;;;;;29.27;49.05;100127.50;5007835;28;20156;-76
2022/09/10 11:32:15;;;;;;;11.80;7.57;;;;;;;28.94;50.43;100117.56;5007073;28;20049;-76
2022/09/10 11:35:05;;;;;;;22.35;7.70;;;;;;;29.22;51.09;100130.56;5004239;28;20041;-75